TimeEDT,TemperatureF,Dew PointF,Humidity,Sea Level PressureIn,VisibilityMPH,Wind Direction,Wind SpeedMPH,Gust SpeedMPH,PrecipitationIn,Events,Conditions,WindDirDegrees,DateUTC
12:56 AM,64.9,55.9,73,29.95,-9999.0,East,9.2,-,N/A,,Unknown,90,2013-09-02 04:56:00
1:56 AM,64.9,57.9,78,29.94,-9999.0,East,8.1,16.1,N/A,,Unknown,90,2013-09-02 05:56:00
2:56 AM,64.0,62.1,93,29.95,-9999.0,East,8.1,-,N/A,,Unknown,100,2013-09-02 06:56:00
3:56 AM,64.0,62.1,93,29.94,-9999.0,East,9.2,-,0.02,,Unknown,100,2013-09-02 07:56:00
4:56 AM,62.1,61.0,96,29.94,-9999.0,East,13.8,-,0.01,,Unknown,100,2013-09-02 08:56:00
5:56 AM,61.0,60.1,97,29.93,-9999.0,East,16.1,25.3,0.01,,Unknown,90,2013-09-02 09:56:00
6:56 AM,60.1,59.0,96,29.95,-9999.0,ESE,11.5,23.0,N/A,,Unknown,110,2013-09-02 10:56:00
7:56 AM,59.0,57.9,96,29.96,-9999.0,ESE,10.4,20.7,N/A,,Unknown,110,2013-09-02 11:56:00
8:56 AM,57.9,57.0,97,29.95,-9999.0,East,16.1,23.0,0.09,,Unknown,90,2013-09-02 12:56:00
9:56 AM,57.9,55.9,93,29.94,-9999.0,ESE,12.7,21.9,0.02,,Unknown,110,2013-09-02 13:56:00
10:56 AM,57.9,55.9,93,29.93,-9999.0,East,17.3,23.0,0.08,,Unknown,90,2013-09-02 14:56:00
11:56 AM,57.9,55.9,93,29.92,-9999.0,East,18.4,25.3,0.27,,Unknown,100,2013-09-02 15:56:00
12:56 PM,57.9,57.0,97,29.90,-9999.0,East,15.0,-,0.44,,Unknown,100,2013-09-02 16:56:00
1:56 PM,59.0,57.9,96,29.88,-9999.0,ESE,13.8,23.0,0.04,,Unknown,110,2013-09-02 17:56:00
2:56 PM,60.1,59.0,96,29.87,-9999.0,ESE,8.1,18.4,0.04,,Unknown,110,2013-09-02 18:56:00
3:56 PM,60.1,59.0,96,29.86,-9999.0,ESE,11.5,-,0.02,,Unknown,110,2013-09-02 19:56:00
4:56 PM,60.1,59.0,96,29.86,-9999.0,East,11.5,17.3,0.01,,Unknown,100,2013-09-02 20:56:00
5:56 PM,60.1,59.0,96,29.84,-9999.0,ESE,9.2,18.4,N/A,,Unknown,110,2013-09-02 21:56:00
6:56 PM,60.1,57.9,93,29.82,-9999.0,East,17.3,-,N/A,,Unknown,100,2013-09-02 22:56:00
7:56 PM,60.1,57.9,93,29.82,-9999.0,East,13.8,19.6,N/A,,Unknown,100,2013-09-02 23:56:00
8:56 PM,60.1,59.0,96,29.82,-9999.0,ESE,9.2,-,0.01,,Unknown,110,2013-09-03 00:56:00
9:56 PM,60.1,59.0,96,29.80,-9999.0,East,10.4,-,N/A,,Unknown,100,2013-09-03 01:56:00
10:56 PM,59.0,59.0,100,29.78,-9999.0,ESE,6.9,-,0.05,,Unknown,110,2013-09-03 02:56:00
11:56 PM,60.1,59.0,96,29.77,-9999.0,SE,4.6,-,N/A,,Unknown,130,2013-09-03 03:56:00